createdAt,value
2019-04-14T00:01:02.962Z,7.53
2019-04-14T00:04:01.380Z,7.60
2019-04-14T00:06:33.316Z,7.93
2019-04-14T00:09:07.482Z,8.23
2019-04-14T00:11:41.365Z,8.30
2019-04-14T00:14:12.264Z,8.07
2019-04-14T00:16:42.939Z,8.30
2019-04-14T00:19:13.179Z,8.40
2019-04-14T00:21:43.839Z,8.00
2019-04-14T00:24:14.151Z,8.40
2019-04-14T00:26:44.489Z,8.90
2019-04-14T00:29:15.274Z,8.50
2019-04-14T00:31:45.625Z,8.40
2019-04-14T00:34:26.787Z,8.50
2019-04-14T00:37:31.622Z,9.00
2019-04-14T00:40:21.575Z,8.50
2019-04-14T00:42:58.240Z,9.03
2019-04-14T00:45:50.764Z,10.00
2019-04-14T00:48:20.668Z,8.77
2019-04-14T00:50:51.664Z,9.10
2019-04-14T00:53:22.876Z,9.10
2019-04-14T00:55:53.582Z,9.00
2019-04-14T00:58:23.831Z,9.53
2019-04-14T01:00:54.077Z,9.03
2019-04-14T01:03:24.508Z,9.40
2019-04-14T01:05:54.868Z,9.00
2019-04-14T01:08:25.065Z,9.57
2019-04-14T01:10:56.230Z,9.13
2019-04-14T01:13:39.650Z,10.27
2019-04-14T01:16:16.601Z,10.83
2019-04-14T01:18:43.007Z,10.20
2019-04-14T01:21:13.279Z,10.03
2019-04-14T01:23:43.561Z,9.27
2019-04-14T01:26:13.929Z,10.33
2019-04-14T01:28:44.108Z,10.13
2019-04-14T01:31:14.350Z,9.80
2019-04-14T01:33:44.907Z,11.43
2019-04-14T01:36:15.235Z,10.90
2019-04-14T01:38:45.522Z,11.23
2019-04-14T01:41:17.056Z,11.37
2019-04-14T01:43:47.968Z,10.87
2019-04-14T01:46:24.135Z,11.47
2019-04-14T01:48:50.109Z,11.17
2019-04-14T01:51:54.911Z,11.40
2019-04-14T01:54:47.405Z,12.30
2019-04-14T01:57:43.785Z,12.17
2019-04-14T02:00:44.965Z,12.57
2019-04-14T02:03:15.226Z,12.20
2019-04-14T02:05:45.516Z,12.67
2019-04-14T02:08:16.050Z,12.87
2019-04-14T02:10:47.699Z,12.30
2019-04-14T02:13:18.346Z,13.67
2019-04-14T02:15:48.616Z,13.37
2019-04-14T02:18:19.245Z,12.73
2019-04-14T02:20:51.241Z,12.80
2019-04-14T02:23:21.545Z,13.10
2019-04-14T02:25:51.720Z,14.80
2019-04-14T02:28:22.120Z,13.47
2019-04-14T02:31:06.362Z,14.93
2019-04-14T02:49:04.441Z,14.60
2019-04-14T02:51:33.603Z,13.93
2019-04-14T02:54:07.227Z,13.63
2019-04-14T02:56:38.913Z,14.83
2019-04-14T02:59:13.134Z,14.90
2019-04-14T03:04:15.255Z,15.87
2019-04-14T03:06:50.149Z,15.17
2019-04-14T03:09:33.733Z,15.63
2019-04-14T03:14:27.861Z,15.33
2019-04-14T03:17:18.649Z,16.00
2019-04-14T03:19:48.180Z,15.03
2019-04-14T03:22:32.863Z,15.87
2019-04-14T03:25:06.268Z,15.87
2019-04-14T03:27:54.598Z,15.73
2019-04-14T03:31:25.555Z,16.20
2019-04-14T03:33:31.892Z,17.23
2019-04-14T03:40:49.209Z,18.17
2019-04-14T03:43:25.274Z,17.40
2019-04-14T03:48:54.050Z,18.40
2019-04-14T03:51:03.819Z,18.93
2019-04-14T03:53:42.827Z,18.17
2019-04-14T03:56:14.906Z,18.67
2019-04-14T03:58:44.462Z,19.63
2019-04-14T04:01:26.494Z,19.70
2019-04-14T04:03:56.648Z,19.33
2019-04-14T04:06:27.108Z,18.30
2019-04-14T04:08:57.508Z,20.40
2019-04-14T04:11:28.045Z,20.63
2019-04-14T04:13:58.511Z,19.93
2019-04-14T04:17:00.037Z,19.30
2019-04-14T04:19:40.511Z,19.10
2019-04-14T04:22:30.387Z,19.53
2019-04-14T04:25:12.246Z,20.43
2019-04-14T04:28:06.031Z,19.57
2019-04-14T04:31:02.420Z,19.63
2019-04-14T04:33:43.672Z,20.63
2019-04-14T04:36:20.307Z,21.27
2019-04-14T04:38:55.288Z,20.93
2019-04-14T04:41:27.476Z,20.60
2019-04-14T04:43:58.535Z,20.73
2019-04-14T04:46:30.835Z,21.50
2019-04-14T04:49:09.569Z,21.10
2019-04-14T04:51:33.340Z,19.97
2019-04-14T04:54:03.835Z,21.17
2019-04-14T04:56:34.197Z,20.30
2019-04-14T04:59:05.441Z,19.23
2019-04-14T05:01:36.494Z,19.03
2019-04-14T05:04:06.961Z,19.70
2019-04-14T05:07:09.903Z,20.93
2019-04-14T05:10:02.676Z,19.40
2019-04-14T05:12:58.661Z,19.20
2019-04-14T05:15:46.754Z,20.43
2019-04-14T05:18:22.257Z,20.03
2019-04-14T05:20:53.296Z,20.10
2019-04-14T05:23:23.961Z,20.80
2019-04-14T05:25:55.949Z,20.80
2019-04-14T05:28:26.835Z,21.17
2019-04-14T05:30:57.020Z,19.77
2019-04-14T05:33:27.569Z,20.33
2019-04-14T05:35:57.843Z,20.73
2019-04-14T05:38:31.043Z,20.20
2019-04-14T05:41:00.505Z,20.93
2019-04-14T05:43:41.549Z,20.20
2019-04-14T05:46:03.506Z,20.33
2019-04-14T05:48:33.846Z,21.17
2019-04-14T05:51:04.640Z,19.40
2019-04-14T05:53:35.250Z,20.37
2019-04-14T05:56:05.765Z,21.63
2019-04-14T05:58:36.185Z,21.47
2019-04-14T06:01:06.915Z,22.47
2019-04-14T06:03:38.546Z,22.27
2019-04-14T06:06:08.825Z,22.33
2019-04-14T06:08:39.083Z,20.93
2019-04-14T06:11:09.305Z,21.57
2019-04-14T06:13:39.496Z,21.60
2019-04-14T06:16:10.114Z,21.70
2019-04-14T06:18:41.003Z,22.30
2019-04-14T06:21:11.650Z,23.13
2019-04-14T06:23:42.276Z,23.77
2019-04-14T06:26:12.831Z,24.80
2019-04-14T06:28:43.413Z,22.10
2019-04-14T06:31:33.702Z,21.90
2019-04-14T06:34:22.888Z,23.07
2019-04-14T06:36:59.051Z,22.47
2019-04-14T06:39:32.418Z,22.90
2019-04-14T06:42:02.732Z,21.93
2019-04-14T06:44:33.276Z,22.77
2019-04-14T06:47:05.194Z,23.10
2019-04-14T06:49:35.462Z,23.33
2019-04-14T06:52:05.699Z,22.50
2019-04-14T06:54:36.327Z,20.97
2019-04-14T06:57:06.590Z,22.07
2019-04-14T06:59:36.766Z,21.93
2019-04-14T07:02:08.632Z,22.83
2019-04-14T07:04:38.987Z,22.17
2019-04-14T07:07:09.201Z,22.17
2019-04-14T07:09:39.454Z,22.63
2019-04-14T07:12:09.725Z,22.07
2019-04-14T07:14:40.379Z,21.63
2019-04-14T07:17:10.622Z,21.93
2019-04-14T07:19:41.274Z,21.57
2019-04-14T07:22:11.861Z,21.87
2019-04-14T07:24:42.061Z,21.47
2019-04-14T07:27:12.971Z,22.83
2019-04-14T07:29:48.707Z,23.50
2019-04-14T07:32:43.946Z,23.60
2019-04-14T07:35:35.957Z,23.63
2019-04-14T07:38:23.019Z,23.60
2019-04-14T07:41:18.343Z,20.93
2019-04-14T07:44:10.923Z,23.73
2019-04-14T07:46:44.688Z,24.03
2019-04-14T07:49:36.914Z,23.73
2019-04-14T07:52:24.712Z,25.00
2019-04-14T07:55:01.921Z,23.93
2019-04-14T07:58:00.201Z,23.03
2019-04-14T08:00:36.398Z,23.30
2019-04-14T08:03:21.907Z,22.20
2019-04-14T08:05:52.690Z,22.77
2019-04-14T08:08:23.323Z,21.97
2019-04-14T08:10:54.045Z,20.83
2019-04-14T08:13:24.428Z,22.83
2019-04-14T08:15:55.291Z,21.80
2019-04-14T08:18:25.761Z,21.43
2019-04-14T08:20:56.293Z,21.53
2019-04-14T08:23:26.820Z,21.47
2019-04-14T08:25:57.718Z,22.27
2019-04-14T08:28:27.952Z,20.60
2019-04-14T08:30:58.212Z,21.00
2019-04-14T08:33:28.433Z,21.00
2019-04-14T08:35:59.234Z,21.13
2019-04-14T08:38:29.518Z,21.33
2019-04-14T08:41:00.189Z,21.00
2019-04-14T08:43:52.784Z,20.40
2019-04-14T08:46:51.220Z,21.23
2019-04-14T08:49:39.020Z,22.20
2019-04-14T08:52:30.802Z,21.97
2019-04-14T08:55:10.688Z,23.03
2019-04-14T08:58:04.280Z,20.73
2019-04-14T09:00:41.382Z,23.33
2019-04-14T09:03:37.287Z,23.10
2019-04-14T09:06:29.534Z,23.53
2019-04-14T09:09:31.085Z,22.77
2019-04-14T09:12:14.807Z,23.53
2019-04-14T09:14:36.458Z,24.20
2019-04-14T09:17:07.564Z,24.47
2019-04-14T09:19:38.183Z,23.57
2019-04-14T09:22:08.387Z,24.33
2019-04-14T09:24:38.647Z,24.77
2019-04-14T09:27:08.967Z,24.77
2019-04-14T09:29:39.844Z,24.00
2019-04-14T09:32:10.907Z,23.53
2019-04-14T09:34:41.456Z,24.40
2019-04-14T09:37:12.283Z,24.03
2019-04-14T09:39:42.577Z,23.23
2019-04-14T09:42:12.837Z,24.10
2019-04-14T09:44:43.067Z,24.00
2019-04-14T09:47:13.511Z,23.53
2019-04-14T09:49:44.225Z,25.17
2019-04-14T09:52:14.703Z,25.03
2019-04-14T09:54:45.437Z,25.67
2019-04-14T09:57:16.055Z,26.67
2019-04-14T09:59:46.719Z,27.00
2019-04-14T10:02:16.916Z,26.27
2019-04-14T10:04:47.817Z,26.93
2019-04-14T10:07:18.348Z,27.17
2019-04-14T10:09:48.667Z,27.30
2019-04-14T10:12:18.926Z,28.00
2019-04-14T10:14:49.167Z,29.87
2019-04-14T10:17:19.288Z,30.40
2019-04-14T10:19:49.546Z,31.03
2019-04-14T10:22:19.756Z,31.63
2019-04-14T10:24:50.361Z,30.43
2019-04-14T10:27:20.565Z,30.63
2019-04-14T10:29:50.845Z,30.87
2019-04-14T10:32:21.054Z,30.33
2019-04-14T10:34:51.299Z,30.83
2019-04-14T10:37:21.766Z,30.73
2019-04-14T10:39:51.996Z,31.63
2019-04-14T10:42:22.218Z,29.97
2019-04-14T10:44:52.735Z,30.37
2019-04-14T10:47:23.390Z,29.20
2019-04-14T10:49:53.634Z,28.60
2019-04-14T10:52:24.782Z,29.03
2019-04-14T10:54:55.426Z,29.47
2019-04-14T10:57:25.620Z,29.90
2019-04-14T10:59:56.191Z,29.90
2019-04-14T11:02:27.074Z,30.27
2019-04-14T11:04:57.303Z,30.93
2019-04-14T11:07:29.297Z,29.73
2019-04-14T11:09:59.557Z,30.50
2019-04-14T11:12:29.824Z,30.97
2019-04-14T11:15:00.111Z,31.47
2019-04-14T11:17:30.385Z,31.97
2019-04-14T11:20:01.068Z,33.93
2019-04-14T11:22:31.332Z,32.27
2019-04-14T11:25:02.324Z,30.03
2019-04-14T11:27:32.589Z,29.33
2019-04-14T11:30:03.873Z,29.47
2019-04-14T11:32:56.065Z,27.70
2019-04-14T11:35:38.740Z,28.03
2019-04-14T11:38:28.089Z,28.97
2019-04-14T11:41:00.793Z,28.30
2019-04-14T11:43:31.029Z,27.67
2019-04-14T11:46:03.796Z,26.73
2019-04-14T11:48:33.721Z,25.83
2019-04-14T11:51:05.422Z,25.53
2019-04-14T11:53:36.467Z,26.33
2019-04-14T11:56:06.951Z,24.67
2019-04-14T11:58:37.227Z,27.13
2019-04-14T12:01:27.619Z,26.00
2019-04-14T12:04:06.725Z,25.23
2019-04-14T12:06:54.669Z,26.37
2019-04-14T12:09:31.095Z,26.97
2019-04-14T12:12:01.369Z,25.50
2019-04-14T12:14:31.941Z,25.93
2019-04-14T12:17:02.515Z,27.43
2019-04-14T12:19:32.771Z,27.20
2019-04-14T12:22:08.551Z,25.40
2019-04-14T12:24:34.918Z,26.33
2019-04-14T12:27:05.180Z,25.97
2019-04-14T12:29:36.791Z,24.83
2019-04-14T12:32:08.790Z,25.93
2019-04-14T12:34:39.024Z,25.17
2019-04-14T12:37:10.016Z,25.67
2019-04-14T12:39:40.889Z,24.80
2019-04-14T12:42:48.874Z,24.67
2019-04-14T12:45:32.723Z,24.90
2019-04-14T12:48:27.736Z,25.53
2019-04-14T12:51:04.867Z,23.97
2019-04-14T12:53:35.119Z,25.67
2019-04-14T12:56:05.359Z,25.03
2019-04-14T12:58:57.642Z,24.13
2019-04-14T13:01:30.116Z,24.43
2019-04-14T13:04:00.328Z,25.10
2019-04-14T13:06:30.600Z,25.33
2019-04-14T13:09:00.817Z,26.10
2019-04-14T13:11:31.092Z,26.13
2019-04-14T13:14:01.349Z,26.43
2019-04-14T13:16:32.342Z,26.97
2019-04-14T13:19:02.979Z,25.77
2019-04-14T13:21:33.283Z,27.23
2019-04-14T13:24:03.829Z,27.03
2019-04-14T13:26:34.084Z,27.80
2019-04-14T13:29:04.930Z,27.65
2019-04-14T13:31:35.532Z,28.40
2019-04-14T13:34:05.791Z,26.97
2019-04-14T13:36:36.446Z,26.70
2019-04-14T13:39:08.532Z,26.37
2019-04-14T13:41:38.830Z,27.30
2019-04-14T13:44:09.220Z,27.00
2019-04-14T13:46:39.478Z,28.70
2019-04-14T13:49:09.727Z,27.87
2019-04-14T13:51:39.993Z,25.97
2019-04-14T13:54:10.224Z,27.83
2019-04-14T13:56:40.515Z,28.63
2019-04-14T13:59:11.372Z,30.10
2019-04-14T14:01:42.015Z,30.20
2019-04-14T14:04:12.251Z,29.03
2019-04-14T14:06:42.549Z,28.90
2019-04-14T14:09:12.805Z,30.50
2019-04-14T14:11:57.594Z,29.53
2019-04-14T14:14:59.029Z,30.23
2019-04-14T14:17:53.809Z,28.83
2019-04-14T14:20:52.637Z,27.07
2019-04-14T14:23:30.597Z,26.37
2019-04-14T14:26:04.210Z,27.13
2019-04-14T14:28:34.422Z,27.27
2019-04-14T14:31:04.940Z,29.00
2019-04-14T14:33:35.184Z,28.97
2019-04-14T14:36:05.408Z,28.43
2019-04-14T14:38:37.045Z,29.70
2019-04-14T14:41:09.194Z,28.73
2019-04-14T14:43:39.481Z,27.03
2019-04-14T14:46:37.660Z,28.07
2019-04-14T14:49:16.898Z,29.03
2019-04-14T14:51:53.176Z,28.47
2019-04-14T14:54:24.062Z,28.33
2019-04-14T14:56:54.610Z,28.03
2019-04-14T14:59:25.259Z,26.93
2019-04-14T15:01:55.646Z,28.30
2019-04-14T15:04:25.910Z,27.70
2019-04-14T15:06:56.895Z,29.13
2019-04-14T15:09:27.452Z,28.77
2019-04-14T15:11:57.669Z,26.70
2019-04-14T15:14:28.367Z,28.07
2019-04-14T15:16:58.632Z,27.17
2019-04-14T15:19:28.857Z,25.03
2019-04-14T15:21:59.140Z,26.43
2019-04-14T15:24:29.412Z,26.47
2019-04-14T15:27:00.294Z,26.57
2019-04-14T15:29:30.844Z,26.33
2019-04-14T15:32:01.159Z,27.57
2019-04-14T15:34:31.726Z,26.63
2019-04-14T15:37:02.030Z,26.67
2019-04-14T15:39:32.239Z,26.70
2019-04-14T15:42:02.498Z,26.87
2019-04-14T15:44:33.088Z,27.30
2019-04-14T15:47:03.728Z,27.77
2019-04-14T15:49:33.985Z,27.17
2019-04-14T15:52:05.059Z,26.23
2019-04-14T15:54:36.468Z,27.87
2019-04-14T15:57:24.784Z,27.50
2019-04-14T16:00:05.852Z,25.67
2019-04-14T16:02:55.372Z,26.67
2019-04-14T16:05:38.167Z,25.93
2019-04-14T16:08:28.842Z,25.87
2019-04-14T16:11:13.717Z,26.53
2019-04-14T16:13:48.471Z,27.10
2019-04-14T16:16:31.145Z,25.63
2019-04-14T16:19:08.640Z,25.03
2019-04-14T16:21:38.896Z,26.00
2019-04-14T16:24:09.446Z,25.03
2019-04-14T16:27:04.726Z,25.23
2019-04-14T16:29:39.007Z,24.67
2019-04-14T16:32:26.535Z,24.53
2019-04-14T16:35:09.958Z,24.40
2019-04-14T16:37:40.244Z,23.43
2019-04-14T16:40:11.539Z,24.03
2019-04-14T16:42:41.991Z,24.33
2019-04-14T16:45:13.227Z,23.83
2019-04-14T16:47:43.792Z,23.33
2019-04-14T16:50:14.146Z,22.40
2019-04-14T16:53:03.381Z,22.97
2019-04-14T16:55:47.380Z,23.00
2019-04-14T16:58:29.825Z,23.83
2019-04-14T17:01:06.341Z,22.83
2019-04-14T17:03:36.672Z,21.80
2019-04-14T17:06:06.941Z,21.87
2019-04-14T17:08:37.310Z,22.07
2019-04-14T17:11:07.567Z,20.77
2019-04-14T17:13:40.937Z,21.77
2019-04-14T17:16:20.801Z,21.30
2019-04-14T17:19:13.698Z,20.50
2019-04-14T17:21:52.302Z,19.93
2019-04-14T17:24:40.502Z,20.43
2019-04-14T17:27:24.474Z,19.57
2019-04-14T17:30:13.743Z,19.43
2019-04-14T17:32:50.809Z,20.40
2019-04-14T17:35:27.994Z,19.33
2019-04-14T17:38:04.562Z,19.03
2019-04-14T17:40:50.063Z,19.23
2019-04-14T17:43:29.535Z,20.20
2019-04-14T17:46:24.971Z,19.50
2019-04-14T17:49:13.094Z,19.07
2019-04-14T17:51:53.354Z,19.10
2019-04-14T17:54:41.395Z,18.90
2019-04-14T17:57:29.250Z,19.10
2019-04-14T18:00:30.441Z,18.70
2019-04-14T18:03:04.782Z,18.53
2019-04-14T18:05:39.799Z,19.20
2019-04-14T18:08:31.793Z,18.40
2019-04-14T18:11:28.544Z,18.03
2019-04-14T18:14:27.134Z,18.13
2019-04-14T18:17:19.797Z,17.97
2019-04-14T18:20:24.535Z,18.67
2019-04-14T18:22:54.919Z,18.20
2019-04-14T18:25:25.287Z,17.83
2019-04-14T18:28:23.629Z,17.87
2019-04-14T18:30:59.199Z,17.67
2019-04-14T18:33:57.634Z,18.93
2019-04-14T18:36:38.672Z,17.87
2019-04-14T18:39:31.160Z,18.87
2019-04-14T18:42:23.644Z,17.90
2019-04-14T18:45:18.675Z,18.20
2019-04-14T18:47:56.115Z,19.00
2019-04-14T18:50:45.516Z,18.27
2019-04-14T18:53:20.049Z,18.37
2019-04-14T18:56:07.556Z,17.60
2019-04-14T18:58:55.464Z,18.00
2019-04-14T19:01:28.686Z,18.27
2019-04-14T19:04:02.089Z,18.43
2019-04-14T19:06:31.179Z,17.93
2019-04-14T19:09:01.721Z,19.03
2019-04-14T19:11:49.484Z,18.80
2019-04-14T19:14:31.532Z,17.87
2019-04-14T19:17:21.101Z,19.57
2019-04-14T19:20:01.386Z,18.90
2019-04-14T19:22:25.837Z,19.07
2019-04-14T19:25:07.433Z,20.03
2019-04-14T19:27:27.986Z,19.00
2019-04-14T19:29:58.276Z,17.87
2019-04-14T19:32:28.516Z,18.37
2019-04-14T19:34:58.729Z,18.63
2019-04-14T19:37:28.966Z,19.40
2019-04-14T19:39:59.893Z,19.67
2019-04-14T19:42:30.102Z,19.47
2019-04-14T19:45:00.443Z,19.23
2019-04-14T19:47:30.667Z,20.57
2019-04-14T19:50:00.955Z,20.23
2019-04-14T19:52:31.205Z,19.97
2019-04-14T19:55:01.404Z,19.40
2019-04-14T19:57:31.640Z,19.37
2019-04-14T20:00:01.954Z,20.73
2019-04-14T20:02:32.233Z,19.00
2019-04-14T20:05:02.441Z,20.37
2019-04-14T20:07:33.056Z,19.70
2019-04-14T20:10:03.651Z,20.80
2019-04-14T20:12:33.944Z,21.63
2019-04-14T20:15:05.701Z,19.97
2019-04-14T20:17:44.095Z,20.77
2019-04-14T20:20:31.960Z,20.43
2019-04-14T20:23:10.907Z,20.53
2019-04-14T20:26:00.392Z,19.63
2019-04-14T20:28:49.911Z,20.00
2019-04-14T20:31:39.072Z,20.13
2019-04-14T20:34:09.307Z,19.57
2019-04-14T20:36:40.142Z,19.23
2019-04-14T20:39:16.088Z,21.40
2019-04-14T20:41:46.362Z,21.20
2019-04-14T20:44:17.075Z,20.63
2019-04-14T20:46:47.416Z,20.60
2019-04-14T20:49:17.608Z,20.97
2019-04-14T20:51:47.878Z,19.27
2019-04-14T20:54:18.147Z,21.20
2019-04-14T20:56:48.398Z,21.80
2019-04-14T20:59:18.978Z,21.07
2019-04-14T21:01:58.012Z,19.50
2019-04-14T21:04:38.228Z,20.70
2019-04-14T21:07:22.285Z,20.13
2019-04-14T21:09:59.967Z,19.63
2019-04-14T21:13:04.246Z,19.70
2019-04-14T21:15:41.199Z,19.17
2019-04-14T21:18:42.701Z,19.67
2019-04-14T21:21:22.432Z,19.10
2019-04-14T21:23:57.714Z,18.83
2019-04-14T21:26:45.104Z,19.27
2019-04-14T21:29:25.319Z,19.03
2019-04-14T21:32:00.151Z,18.43
2019-04-14T21:34:49.309Z,18.20
2019-04-14T21:37:30.147Z,17.93
2019-04-14T21:40:31.306Z,17.93
2019-04-14T21:43:01.918Z,17.80
2019-04-14T21:45:32.131Z,17.57
2019-04-14T21:48:02.432Z,17.83
2019-04-14T21:50:32.681Z,17.17
2019-04-14T21:53:03.348Z,17.13
2019-04-14T21:55:33.586Z,17.27
2019-04-14T21:58:18.630Z,17.97
2019-04-14T22:01:49.070Z,17.00
2019-04-14T22:04:31.542Z,16.40
2019-04-14T22:07:19.936Z,16.97
2019-04-14T22:09:51.118Z,16.77
2019-04-14T22:12:21.673Z,16.07
2019-04-14T22:14:52.163Z,16.20
2019-04-14T22:17:22.561Z,15.50
2019-04-14T22:19:56.060Z,16.47
2019-04-14T22:22:26.322Z,16.13
2019-04-14T22:24:56.633Z,16.00
2019-04-14T22:27:27.259Z,14.63
2019-04-14T22:29:57.598Z,14.33
2019-04-14T22:32:28.481Z,15.97
2019-04-14T22:34:58.756Z,15.50
2019-04-14T22:37:29.338Z,15.20
2019-04-14T22:39:59.569Z,14.83
2019-04-14T22:42:29.757Z,14.77
2019-04-14T22:45:00.652Z,16.00
2019-04-14T22:47:30.919Z,15.60
2019-04-14T22:50:01.466Z,15.10
2019-04-14T22:52:32.027Z,15.03
2019-04-14T22:55:02.287Z,15.17
2019-04-14T22:57:32.882Z,15.23
2019-04-14T23:00:04.428Z,15.30
2019-04-14T23:02:52.448Z,15.17
2019-04-14T23:05:53.832Z,14.97
2019-04-14T23:08:44.158Z,14.63
2019-04-14T23:11:51.834Z,14.53
2019-04-14T23:14:52.837Z,14.60
2019-04-14T23:17:39.349Z,14.63
2019-04-14T23:20:18.900Z,15.10
2019-04-14T23:23:02.059Z,14.83
2019-04-14T23:25:32.591Z,13.93
2019-04-14T23:28:03.013Z,15.07
2019-04-14T23:30:33.245Z,14.33
2019-04-14T23:33:03.796Z,14.57
2019-04-14T23:35:34.026Z,14.50
2019-04-14T23:38:04.550Z,14.77
2019-04-14T23:40:34.813Z,15.30
2019-04-14T23:43:06.035Z,14.85
2019-04-14T23:45:37.469Z,14.80
2019-04-14T23:48:07.736Z,15.37
2019-04-14T23:50:38.440Z,15.33
2019-04-14T23:53:09.032Z,13.83
2019-04-14T23:55:39.281Z,15.33
2019-04-14T23:58:09.816Z,13.80
